createdAt,value
2017-11-10T00:02:23.186Z,16.83
2017-11-10T00:04:52.218Z,17.50
2017-11-10T00:07:21.116Z,16.40
2017-11-10T00:09:49.961Z,15.10
2017-11-10T00:12:18.935Z,15.47
2017-11-10T00:14:47.760Z,16.63
2017-11-10T00:17:16.609Z,15.67
2017-11-10T00:19:45.434Z,16.13
2017-11-10T00:22:14.276Z,16.33
2017-11-10T00:24:43.160Z,16.03
2017-11-10T00:27:11.987Z,14.10
2017-11-10T00:29:40.820Z,17.17
2017-11-10T00:32:09.664Z,14.57
2017-11-10T00:34:38.500Z,17.07
2017-11-10T00:37:07.340Z,16.40
2017-11-10T00:39:36.183Z,18.03
2017-11-10T00:42:05.019Z,16.50
2017-11-10T00:44:33.851Z,16.37
2017-11-10T00:47:02.701Z,15.10
2017-11-10T00:49:31.540Z,16.20
2017-11-10T00:52:00.374Z,15.60
2017-11-10T00:54:29.239Z,16.60
2017-11-10T00:56:58.071Z,16.73
2017-11-10T00:59:26.904Z,15.90
2017-11-10T01:01:56.526Z,17.10
2017-11-10T01:04:26.105Z,16.80
2017-11-10T01:06:55.683Z,15.87
2017-11-10T01:09:25.276Z,17.67
2017-11-10T01:11:54.855Z,17.30
2017-11-10T01:14:23.698Z,17.03
2017-11-10T01:16:52.617Z,17.50
2017-11-10T01:19:21.630Z,19.07
2017-11-10T01:21:50.488Z,18.13
2017-11-10T01:24:19.348Z,16.80
2017-11-10T01:26:48.221Z,17.07
2017-11-10T01:29:17.690Z,16.20
2017-11-10T01:31:46.527Z,16.50
2017-11-10T01:34:15.355Z,17.10
2017-11-10T01:36:44.266Z,16.60
2017-11-10T01:39:13.117Z,17.40
2017-11-10T01:41:41.978Z,16.53
2017-11-10T01:44:12.681Z,17.60
2017-11-10T01:46:41.530Z,17.10
2017-11-10T01:49:10.369Z,17.10
2017-11-10T01:51:39.193Z,19.03
2017-11-10T01:54:08.043Z,18.00
2017-11-10T01:56:36.893Z,18.13
2017-11-10T01:59:05.737Z,18.20
2017-11-10T02:01:35.230Z,18.30
2017-11-10T02:04:04.064Z,17.00
2017-11-10T02:06:35.973Z,17.17
2017-11-10T02:09:04.824Z,17.37
2017-11-10T02:11:33.664Z,19.43
2017-11-10T02:14:02.502Z,18.23
2017-11-10T02:16:31.341Z,16.63
2017-11-10T02:19:00.173Z,18.13
2017-11-10T02:21:29.021Z,18.70
2017-11-10T02:23:57.899Z,18.10
2017-11-10T02:26:27.511Z,19.17
2017-11-10T02:28:57.111Z,19.93
2017-11-10T02:31:26.680Z,19.20
2017-11-10T02:33:56.272Z,19.27
2017-11-10T02:36:25.941Z,18.73
2017-11-10T02:38:54.777Z,18.17
2017-11-10T02:41:23.604Z,17.30
2017-11-10T02:43:52.454Z,18.37
2017-11-10T02:46:21.297Z,19.50
2017-11-10T02:48:50.132Z,19.40
2017-11-10T02:51:19.117Z,18.37
2017-11-10T02:53:47.975Z,19.33
2017-11-10T02:56:16.890Z,17.97
2017-11-10T02:58:45.730Z,16.77
2017-11-10T03:01:14.575Z,18.73
2017-11-10T03:03:43.407Z,19.50
2017-11-10T03:06:12.257Z,17.63
2017-11-10T03:08:41.092Z,17.33
2017-11-10T03:11:09.922Z,18.70
2017-11-10T03:13:38.770Z,17.30
2017-11-10T03:16:07.609Z,16.77
2017-11-10T03:18:36.440Z,19.20
2017-11-10T03:21:05.275Z,18.73
2017-11-10T03:23:34.156Z,17.10
2017-11-10T03:26:02.988Z,17.70
2017-11-10T03:28:31.841Z,17.63
2017-11-10T03:31:00.704Z,17.93
2017-11-10T03:33:29.548Z,19.00
2017-11-10T03:35:58.680Z,17.10
2017-11-10T03:38:28.328Z,18.27
2017-11-10T03:40:57.912Z,17.20
2017-11-10T03:43:27.497Z,18.43
2017-11-10T03:45:57.077Z,18.93
2017-11-10T03:48:25.931Z,19.77
2017-11-10T03:50:54.763Z,19.40
2017-11-10T03:53:23.595Z,19.80
2017-11-10T03:55:52.503Z,19.50
2017-11-10T03:58:21.350Z,19.50
2017-11-10T04:00:50.317Z,18.73
2017-11-10T04:03:19.149Z,19.10
2017-11-10T04:05:47.989Z,18.87
2017-11-10T04:08:16.819Z,19.20
2017-11-10T04:10:45.665Z,19.93
2017-11-10T04:13:14.499Z,19.03
2017-11-10T04:15:43.327Z,20.63
2017-11-10T04:18:12.176Z,23.20
2017-11-10T04:20:41.120Z,20.63
2017-11-10T04:23:09.954Z,21.20
2017-11-10T04:25:38.789Z,20.60
2017-11-10T04:28:07.624Z,19.93
2017-11-10T04:30:36.508Z,19.20
2017-11-10T04:33:05.453Z,19.23
2017-11-10T04:35:34.388Z,20.33
2017-11-10T04:38:03.220Z,19.80
2017-11-10T04:40:32.065Z,21.10
2017-11-10T04:43:00.896Z,18.57
2017-11-10T04:45:29.759Z,18.80
2017-11-10T04:47:59.419Z,19.60
2017-11-10T04:50:28.992Z,17.50
2017-11-10T04:52:58.579Z,17.73
2017-11-10T04:55:28.368Z,17.70
2017-11-10T04:57:57.204Z,17.60
2017-11-10T05:00:26.041Z,16.67
2017-11-10T05:02:55.141Z,15.73
2017-11-10T05:05:23.972Z,16.60
2017-11-10T05:07:52.812Z,17.20
2017-11-10T05:10:21.659Z,16.30
2017-11-10T05:12:50.491Z,16.20
2017-11-10T05:15:19.320Z,16.40
2017-11-10T05:17:48.172Z,16.00
2017-11-10T05:20:17.003Z,15.43
2017-11-10T05:22:45.844Z,16.70
2017-11-10T05:25:14.705Z,16.23
2017-11-10T05:27:43.764Z,16.13
2017-11-10T05:30:12.608Z,17.00
2017-11-10T05:32:41.448Z,15.50
2017-11-10T05:35:10.295Z,16.33
2017-11-10T05:37:39.123Z,16.47
2017-11-10T05:40:08.019Z,17.80
2017-11-10T05:42:36.872Z,16.40
2017-11-10T05:45:05.789Z,20.77
2017-11-10T05:47:34.640Z,18.20
2017-11-10T05:50:03.491Z,17.40
2017-11-10T05:52:32.336Z,17.97
2017-11-10T05:55:01.197Z,17.50
2017-11-10T05:57:30.878Z,17.30
2017-11-10T06:00:00.467Z,17.70
2017-11-10T06:02:30.062Z,16.50
2017-11-10T06:04:59.756Z,16.60
2017-11-10T06:07:29.334Z,17.30
2017-11-10T06:09:58.182Z,17.70
2017-11-10T06:12:27.074Z,17.03
2017-11-10T06:14:56.212Z,16.43
2017-11-10T06:17:25.056Z,16.60
2017-11-10T06:19:53.890Z,17.63
2017-11-10T06:22:22.731Z,17.30
2017-11-10T06:24:51.583Z,17.13
2017-11-10T06:27:20.516Z,18.80
2017-11-10T06:29:49.379Z,16.80
2017-11-10T06:32:18.280Z,16.60
2017-11-10T06:34:47.183Z,17.40
2017-11-10T06:37:16.092Z,18.50
2017-11-10T06:39:45.000Z,16.47
2017-11-10T06:42:13.864Z,18.63
2017-11-10T06:44:42.701Z,18.00
2017-11-10T06:47:11.552Z,16.23
2017-11-10T06:49:40.404Z,15.77
2017-11-10T06:52:09.243Z,17.80
2017-11-10T06:54:38.087Z,17.53
2017-11-10T06:57:06.975Z,17.37
2017-11-10T06:59:35.891Z,17.30
2017-11-10T07:02:04.803Z,17.10
2017-11-10T07:04:33.647Z,16.30
2017-11-10T07:07:02.598Z,17.43
2017-11-10T07:09:32.199Z,16.73
2017-11-10T07:12:01.865Z,15.87
2017-11-10T07:14:31.501Z,17.50
2017-11-10T07:17:01.083Z,16.13
2017-11-10T07:19:29.942Z,16.60
2017-11-10T07:21:58.860Z,17.00
2017-11-10T07:24:27.704Z,16.67
2017-11-10T07:26:56.828Z,17.93
2017-11-10T07:29:25.664Z,17.93
2017-11-10T07:31:54.548Z,15.87
2017-11-10T07:34:23.380Z,16.80
2017-11-10T07:36:52.301Z,16.23
2017-11-10T07:39:21.187Z,17.77
2017-11-10T07:41:50.021Z,16.57
2017-11-10T07:44:18.848Z,15.80
2017-11-10T07:46:47.781Z,16.10
2017-11-10T07:49:16.619Z,15.57
2017-11-10T07:51:45.443Z,15.67
2017-11-10T07:54:14.291Z,15.50
2017-11-10T07:56:43.124Z,15.17
2017-11-10T07:59:12.039Z,16.30
2017-11-10T08:01:40.881Z,15.50
2017-11-10T08:04:09.732Z,15.87
2017-11-10T08:06:38.623Z,16.20
2017-11-10T08:09:07.486Z,17.07
2017-11-10T08:11:36.321Z,15.87
2017-11-10T08:14:05.177Z,15.20
2017-11-10T08:16:34.137Z,14.60
2017-11-10T08:19:03.724Z,15.60
2017-11-10T08:21:33.325Z,14.63
2017-11-10T08:24:02.926Z,14.97
2017-11-10T08:26:32.772Z,15.80
2017-11-10T08:29:01.609Z,14.90
2017-11-10T08:31:30.447Z,14.83
2017-11-10T08:33:59.297Z,13.70
2017-11-10T08:36:28.401Z,15.03
2017-11-10T08:38:57.280Z,15.67
2017-11-10T08:41:26.140Z,15.57
2017-11-10T08:43:54.966Z,14.80
2017-11-10T08:46:23.813Z,14.60
2017-11-10T08:48:52.644Z,15.63
2017-11-10T08:51:21.492Z,14.70
2017-11-10T08:53:50.348Z,16.20
2017-11-10T08:56:19.191Z,16.13
2017-11-10T08:58:48.016Z,14.93
2017-11-10T09:01:17.116Z,17.20
2017-11-10T09:03:46.026Z,16.27
2017-11-10T09:06:14.861Z,16.93
2017-11-10T09:08:43.820Z,14.70
2017-11-10T09:11:12.648Z,14.27
2017-11-10T09:13:42.239Z,14.07
2017-11-10T09:16:11.085Z,14.37
2017-11-10T09:18:40.009Z,14.10
2017-11-10T09:21:08.887Z,14.97
2017-11-10T09:23:37.735Z,13.90
2017-11-10T09:26:06.646Z,13.30
2017-11-10T09:28:41.999Z,14.20
2017-11-10T09:31:16.620Z,14.53
2017-11-10T09:33:49.388Z,13.53
2017-11-10T09:36:25.053Z,13.30
2017-11-10T09:38:59.792Z,13.03
2017-11-10T09:41:46.311Z,13.30
2017-11-10T09:44:18.745Z,12.60
2017-11-10T09:47:08.493Z,12.50
2017-11-10T09:49:43.184Z,14.37
2017-11-10T09:52:29.844Z,10.83
2017-11-10T09:55:16.648Z,11.97
2017-11-10T09:58:02.275Z,12.70
2017-11-10T10:00:33.932Z,11.27
2017-11-10T10:03:17.644Z,11.67
2017-11-10T10:05:51.067Z,11.20
2017-11-10T10:08:40.779Z,11.93
2017-11-10T10:11:11.475Z,11.30
2017-11-10T10:13:58.033Z,13.40
2017-11-10T10:16:47.691Z,11.50
2017-11-10T10:19:22.339Z,11.80
2017-11-10T10:22:11.401Z,11.27
2017-11-10T10:24:40.246Z,12.40
2017-11-10T10:27:09.077Z,11.50
2017-11-10T10:29:37.929Z,12.87
2017-11-10T10:32:07.513Z,12.27
2017-11-10T10:34:37.093Z,13.20
2017-11-10T10:37:06.689Z,12.23
2017-11-10T10:39:36.274Z,11.93
2017-11-10T10:42:05.099Z,17.10
2017-11-10T10:44:33.936Z,52.93
2017-11-10T10:47:02.875Z,11.53
2017-11-10T10:49:31.781Z,14.43
2017-11-10T10:52:00.625Z,12.63
2017-11-10T10:54:29.528Z,9.90
2017-11-10T10:56:58.408Z,9.53
2017-11-10T10:59:27.246Z,10.47
2017-11-10T11:01:56.075Z,9.30
2017-11-10T11:04:24.928Z,9.43
2017-11-10T11:06:53.867Z,9.27
2017-11-10T11:09:22.795Z,9.33
2017-11-10T11:11:51.629Z,9.03
2017-11-10T11:14:20.476Z,8.07
2017-11-10T11:16:49.299Z,8.43
2017-11-10T11:19:18.129Z,9.77
2017-11-10T11:21:47.060Z,8.90
2017-11-10T11:24:15.891Z,10.77
2017-11-10T11:26:44.725Z,10.67
2017-11-10T11:29:13.563Z,9.90
2017-11-10T11:31:42.393Z,9.77
2017-11-10T11:34:11.224Z,9.43
2017-11-10T11:36:40.310Z,9.60
2017-11-10T11:39:10.000Z,11.23
2017-11-10T11:41:40.401Z,10.30
2017-11-10T11:44:10.032Z,10.50
2017-11-10T11:46:39.627Z,10.73
2017-11-10T11:49:09.221Z,10.87
2017-11-10T11:51:38.792Z,10.50
2017-11-10T11:54:07.620Z,10.53
2017-11-10T11:56:36.521Z,11.43
2017-11-10T11:59:05.436Z,10.43
2017-11-10T12:01:34.260Z,9.23
2017-11-10T12:04:03.090Z,9.83
2017-11-10T12:06:31.930Z,10.83
2017-11-10T12:09:00.762Z,10.53
2017-11-10T12:11:29.651Z,11.30
2017-11-10T12:13:58.489Z,10.83
2017-11-10T12:16:27.332Z,10.60
2017-11-10T12:18:56.187Z,10.30
2017-11-10T12:21:25.027Z,10.03
2017-11-10T12:23:53.905Z,10.80
2017-11-10T12:26:22.753Z,11.90
2017-11-10T12:28:51.613Z,10.00
2017-11-10T12:31:20.445Z,11.37
2017-11-10T12:33:49.890Z,11.17
2017-11-10T12:36:18.730Z,10.73
2017-11-10T12:38:47.577Z,11.47
2017-11-10T12:41:16.428Z,10.37
2017-11-10T12:43:45.260Z,8.97
2017-11-10T12:46:14.088Z,11.10
2017-11-10T12:48:43.025Z,11.40
2017-11-10T12:51:12.609Z,11.57
2017-11-10T12:53:42.198Z,11.27
2017-11-10T12:56:11.853Z,9.70
2017-11-10T12:58:41.439Z,12.70
2017-11-10T13:01:10.274Z,10.67
2017-11-10T13:03:39.125Z,10.20
2017-11-10T13:06:07.950Z,10.70
2017-11-10T13:08:36.837Z,10.30
2017-11-10T13:11:05.802Z,11.03
2017-11-10T13:13:34.640Z,10.80
2017-11-10T13:16:03.484Z,12.20
2017-11-10T13:18:32.348Z,12.00
2017-11-10T13:21:01.179Z,12.03
2017-11-10T13:23:30.408Z,11.17
2017-11-10T13:25:59.294Z,12.67
2017-11-10T13:28:28.134Z,11.90
2017-11-10T13:30:56.968Z,12.20
2017-11-10T13:33:26.116Z,12.70
2017-11-10T13:35:54.952Z,13.77
2017-11-10T13:38:23.848Z,12.77
2017-11-10T13:40:52.699Z,12.50
2017-11-10T13:43:21.532Z,12.23
2017-11-10T13:45:50.370Z,12.50
2017-11-10T13:48:19.220Z,14.50
2017-11-10T13:50:48.100Z,12.57
2017-11-10T13:53:17.829Z,12.60
2017-11-10T13:55:46.679Z,13.33
2017-11-10T13:58:15.915Z,12.97
2017-11-10T14:00:45.589Z,13.67
2017-11-10T14:03:15.231Z,13.07
2017-11-10T14:05:44.812Z,14.83
2017-11-10T14:08:14.440Z,13.47
2017-11-10T14:10:43.336Z,12.50
2017-11-10T14:13:12.167Z,13.47
2017-11-10T14:15:41.002Z,13.43
2017-11-10T14:18:09.846Z,13.73
2017-11-10T14:20:38.673Z,13.33
2017-11-10T14:23:07.566Z,13.50
2017-11-10T14:25:36.412Z,14.03
2017-11-10T14:28:05.240Z,14.53
2017-11-10T14:30:34.066Z,13.10
2017-11-10T14:33:02.914Z,15.67
2017-11-10T14:35:31.743Z,13.57
2017-11-10T14:38:01.040Z,14.50
2017-11-10T14:40:29.883Z,15.97
2017-11-10T14:42:58.775Z,14.67
2017-11-10T14:45:27.683Z,16.50
2017-11-10T14:47:56.944Z,17.20
2017-11-10T14:50:25.873Z,14.20
2017-11-10T14:52:54.711Z,16.40
2017-11-10T14:55:23.555Z,15.00
2017-11-10T14:57:52.387Z,13.33
2017-11-10T15:00:21.215Z,14.13
2017-11-10T15:02:50.121Z,14.90
2017-11-10T15:05:19.220Z,14.75
2017-11-10T15:07:48.810Z,13.23
2017-11-10T15:10:18.408Z,13.23
2017-11-10T15:12:48.120Z,13.37
2017-11-10T15:15:17.700Z,13.10
2017-11-10T15:17:46.539Z,13.77
2017-11-10T15:20:15.370Z,12.83
2017-11-10T15:22:44.538Z,15.37
2017-11-10T15:25:13.391Z,11.80
2017-11-10T15:27:42.288Z,14.60
2017-11-10T15:30:11.176Z,13.40
2017-11-10T15:32:40.089Z,12.90
2017-11-10T15:35:08.924Z,12.10
2017-11-10T15:37:37.760Z,13.27
2017-11-10T15:40:06.617Z,12.00
2017-11-10T15:42:35.472Z,13.73
2017-11-10T15:45:04.320Z,15.73
2017-11-10T15:47:33.229Z,14.63
2017-11-10T15:50:02.072Z,14.40
2017-11-10T15:52:30.903Z,15.30
2017-11-10T15:54:59.755Z,14.37
2017-11-10T15:57:28.586Z,15.40
2017-11-10T15:59:57.428Z,15.90
2017-11-10T16:02:26.380Z,15.37
2017-11-10T16:04:55.206Z,12.97
2017-11-10T16:07:24.028Z,13.87
2017-11-10T16:09:52.872Z,14.27
2017-11-10T16:12:22.427Z,15.82
2017-11-10T16:14:52.014Z,13.77
2017-11-10T16:17:21.603Z,14.90
2017-11-10T16:19:51.187Z,14.93
2017-11-10T16:22:20.079Z,16.07
2017-11-10T16:24:48.924Z,15.30
2017-11-10T16:27:17.761Z,15.87
2017-11-10T16:29:46.601Z,14.10
2017-11-10T16:32:15.453Z,15.90
2017-11-10T16:34:44.392Z,15.03
2017-11-10T16:37:13.237Z,14.90
2017-11-10T16:39:42.358Z,14.50
2017-11-10T16:42:11.292Z,15.30
2017-11-10T16:44:40.147Z,14.63
2017-11-10T16:47:09.041Z,16.20
2017-11-10T16:49:37.882Z,14.57
2017-11-10T16:52:06.717Z,15.70
2017-11-10T16:54:35.571Z,15.50
2017-11-10T16:57:04.410Z,15.47
2017-11-10T16:59:33.239Z,17.70
2017-11-10T17:02:02.147Z,17.30
2017-11-10T17:04:30.986Z,15.93
2017-11-10T17:06:59.818Z,16.17
2017-11-10T17:09:28.784Z,16.93
2017-11-10T17:11:57.615Z,16.70
2017-11-10T17:14:26.556Z,15.30
2017-11-10T17:16:55.509Z,17.73
2017-11-10T17:19:24.394Z,16.00
2017-11-10T17:21:53.645Z,17.73
2017-11-10T17:24:23.231Z,16.67
2017-11-10T17:26:52.819Z,17.30
2017-11-10T17:29:22.399Z,17.13
2017-11-10T17:31:52.115Z,17.97
2017-11-10T17:34:21.719Z,18.10
2017-11-10T17:36:50.575Z,19.27
2017-11-10T17:39:19.459Z,15.80
2017-11-10T17:41:48.291Z,16.30
2017-11-10T17:44:17.151Z,17.10
2017-11-10T17:46:45.996Z,16.90
2017-11-10T17:49:14.833Z,17.67
2017-11-10T17:51:43.668Z,18.97
2017-11-10T17:54:12.516Z,16.93
2017-11-10T17:56:41.392Z,16.47
2017-11-10T17:59:10.300Z,17.67
2017-11-10T18:01:39.144Z,15.90
2017-11-10T18:04:07.968Z,15.67
2017-11-10T18:06:36.796Z,14.83
2017-11-10T18:09:05.631Z,14.83
2017-11-10T18:11:34.641Z,15.60
2017-11-10T18:14:03.563Z,14.80
2017-11-10T18:16:32.407Z,15.50
2017-11-10T18:19:01.268Z,15.00
2017-11-10T18:21:30.098Z,15.60
2017-11-10T18:23:58.988Z,14.70
2017-11-10T18:26:28.489Z,13.43
2017-11-10T18:28:58.069Z,13.50
2017-11-10T18:31:26.915Z,13.60
2017-11-10T18:33:55.755Z,13.40
2017-11-10T18:36:24.692Z,11.43
2017-11-10T18:38:54.135Z,12.50
2017-11-10T18:41:24.451Z,11.23
2017-11-10T18:43:54.048Z,12.13
2017-11-10T18:46:23.631Z,10.83
2017-11-10T18:48:57.173Z,11.48
2017-11-10T18:51:26.108Z,10.33
2017-11-10T18:53:54.954Z,11.60
2017-11-10T18:56:24.602Z,11.00
2017-11-10T18:58:54.188Z,12.40
2017-11-10T19:01:23.878Z,11.20
2017-11-10T19:03:53.468Z,12.00
2017-11-10T19:06:23.056Z,12.07
2017-11-10T19:08:51.916Z,11.20
2017-11-10T19:11:20.836Z,10.70
2017-11-10T19:13:49.668Z,11.27
2017-11-10T19:16:18.521Z,10.80
2017-11-10T19:18:47.365Z,10.70
2017-11-10T19:21:16.526Z,11.33
2017-11-10T19:23:45.453Z,9.90
2017-11-10T19:26:14.294Z,10.80
2017-11-10T19:28:43.128Z,10.17
2017-11-10T19:31:11.967Z,9.90
2017-11-10T19:33:40.841Z,10.37
2017-11-10T19:36:09.689Z,10.70
2017-11-10T19:38:38.633Z,11.57
2017-11-10T19:41:07.468Z,11.20
2017-11-10T19:43:36.303Z,11.30
2017-11-10T19:46:05.204Z,12.13
2017-11-10T19:48:34.053Z,12.43
2017-11-10T19:51:02.887Z,13.23
2017-11-10T19:53:31.734Z,11.87
2017-11-10T19:56:00.567Z,12.00
2017-11-10T19:58:29.413Z,12.60
2017-11-10T20:00:58.334Z,11.30
2017-11-10T20:03:27.169Z,10.57
2017-11-10T20:05:56.003Z,11.07
2017-11-10T20:08:25.587Z,11.57
2017-11-10T20:10:55.167Z,12.63
2017-11-10T20:13:24.762Z,12.10
2017-11-10T20:15:54.360Z,12.13
2017-11-10T20:18:23.205Z,12.00
2017-11-10T20:20:52.063Z,11.90
2017-11-10T20:23:20.896Z,11.70
2017-11-10T20:25:49.748Z,12.70
2017-11-10T20:28:18.612Z,13.00
2017-11-10T20:30:47.452Z,11.83
2017-11-10T20:33:16.312Z,12.20
2017-11-10T20:35:45.155Z,13.63
2017-11-10T20:38:14.001Z,11.87
2017-11-10T20:40:42.849Z,12.97
2017-11-10T20:43:11.698Z,11.77
2017-11-10T20:45:40.533Z,11.63
2017-11-10T20:48:09.367Z,12.77
2017-11-10T20:50:38.223Z,13.20
2017-11-10T20:53:07.056Z,13.27
2017-11-10T20:55:35.999Z,13.70
2017-11-10T20:58:04.852Z,14.40
2017-11-10T21:00:33.714Z,13.33
2017-11-10T21:03:02.668Z,14.07
2017-11-10T21:05:31.516Z,12.23
2017-11-10T21:08:00.459Z,14.90
2017-11-10T21:10:29.349Z,14.80
2017-11-10T21:12:58.200Z,14.47
2017-11-10T21:15:27.032Z,15.07
2017-11-10T21:17:56.646Z,14.73
2017-11-10T21:20:26.484Z,15.03
2017-11-10T21:22:56.073Z,13.93
2017-11-10T21:25:25.660Z,13.73
2017-11-10T21:27:55.264Z,15.00
2017-11-10T21:30:24.472Z,15.57
2017-11-10T21:32:54.017Z,14.40
2017-11-10T21:35:22.868Z,15.27
2017-11-10T21:37:51.723Z,15.70
2017-11-10T21:40:20.552Z,15.40
2017-11-10T21:42:49.401Z,13.87
2017-11-10T21:45:18.367Z,15.00
2017-11-10T21:47:47.204Z,14.63
2017-11-10T21:50:16.047Z,14.37
2017-11-10T21:52:44.875Z,13.90
2017-11-10T21:55:13.712Z,14.37
2017-11-10T21:57:42.611Z,13.40
2017-11-10T22:00:11.455Z,12.33
2017-11-10T22:02:40.288Z,13.23
2017-11-10T22:05:09.235Z,12.30
2017-11-10T22:07:38.071Z,12.98
2017-11-10T22:10:06.908Z,13.93
2017-11-10T22:12:35.756Z,12.60
2017-11-10T22:15:04.587Z,14.03
2017-11-10T22:17:33.426Z,12.37
2017-11-10T22:20:02.273Z,15.70
2017-11-10T22:22:31.104Z,13.40
2017-11-10T22:24:59.931Z,14.60
2017-11-10T22:27:28.776Z,15.53
2017-11-10T22:29:57.602Z,13.90
2017-11-10T22:32:27.176Z,14.17
2017-11-10T22:34:56.848Z,14.50
2017-11-10T22:37:26.418Z,14.40
2017-11-10T22:39:56.013Z,13.57
2017-11-10T22:42:24.860Z,13.60
2017-11-10T22:44:53.754Z,12.33
2017-11-10T22:47:22.584Z,13.00
2017-11-10T22:49:51.429Z,14.47
2017-11-10T22:52:20.315Z,12.30
2017-11-10T22:54:49.199Z,13.00
2017-11-10T22:57:18.091Z,14.13
2017-11-10T22:59:46.924Z,13.30
2017-11-10T23:02:15.767Z,13.53
2017-11-10T23:04:44.602Z,14.37
2017-11-10T23:07:13.449Z,14.73
2017-11-10T23:09:42.279Z,14.60
2017-11-10T23:12:11.132Z,14.57
2017-11-10T23:14:40.276Z,14.50
2017-11-10T23:17:09.111Z,14.80
2017-11-10T23:19:37.955Z,14.73
2017-11-10T23:22:06.804Z,14.03
2017-11-10T23:24:35.640Z,15.77
2017-11-10T23:27:04.485Z,14.23
2017-11-10T23:29:33.324Z,15.30
2017-11-10T23:32:02.159Z,13.37
2017-11-10T23:34:31.002Z,15.07
2017-11-10T23:36:59.882Z,16.57
2017-11-10T23:39:28.723Z,17.37
2017-11-10T23:41:58.337Z,19.70
2017-11-10T23:44:27.945Z,21.00
2017-11-10T23:46:57.531Z,16.30
2017-11-10T23:49:27.126Z,15.00
2017-11-10T23:51:55.955Z,14.20
2017-11-10T23:54:24.784Z,12.83
2017-11-10T23:56:53.640Z,12.77
2017-11-10T23:59:22.502Z,11.53
